sensor_id;sensor_type;location;lat;lon;timestamp;P1;durP1;ratioP1;P2;durP2;ratioP2
68072;SDS011;54862;51.502;7.446;2022-08-19T00:01:41;15.90;;;10.95;;
68072;SDS011;54862;51.502;7.446;2022-08-19T00:04:08;17.38;;;11.23;;
68072;SDS011;54862;51.502;7.446;2022-08-19T00:06:35;15.52;;;10.27;;
68072;SDS011;54862;51.502;7.446;2022-08-19T00:09:02;15.90;;;10.57;;
68072;SDS011;54862;51.502;7.446;2022-08-19T00:11:28;15.25;;;10.35;;
68072;SDS011;54862;51.502;7.446;2022-08-19T00:13:55;16.15;;;10.23;;
68072;SDS011;54862;51.502;7.446;2022-08-19T00:16:21;14.88;;;9.80;;
68072;SDS011;54862;51.502;7.446;2022-08-19T00:18:48;14.77;;;9.98;;
68072;SDS011;54862;51.502;7.446;2022-08-19T00:21:14;15.60;;;10.10;;
68072;SDS011;54862;51.502;7.446;2022-08-19T00:23:40;16.92;;;10.52;;
68072;SDS011;54862;51.502;7.446;2022-08-19T00:26:07;15.65;;;10.07;;
68072;SDS011;54862;51.502;7.446;2022-08-19T00:28:33;17.02;;;11.05;;
68072;SDS011;54862;51.502;7.446;2022-08-19T00:31:00;17.70;;;10.38;;
68072;SDS011;54862;51.502;7.446;2022-08-19T00:33:28;15.50;;;10.38;;
68072;SDS011;54862;51.502;7.446;2022-08-19T00:35:57;14.95;;;9.45;;
68072;SDS011;54862;51.502;7.446;2022-08-19T00:38:23;15.93;;;9.70;;
68072;SDS011;54862;51.502;7.446;2022-08-19T00:40:49;16.73;;;10.40;;
68072;SDS011;54862;51.502;7.446;2022-08-19T00:43:18;19.48;;;10.30;;
68072;SDS011;54862;51.502;7.446;2022-08-19T00:45:44;16.50;;;10.02;;
68072;SDS011;54862;51.502;7.446;2022-08-19T00:48:10;15.57;;;9.82;;
68072;SDS011;54862;51.502;7.446;2022-08-19T00:50:37;15.60;;;9.63;;
68072;SDS011;54862;51.502;7.446;2022-08-19T00:53:05;13.68;;;9.38;;
68072;SDS011;54862;51.502;7.446;2022-08-19T00:55:31;15.15;;;10.27;;
68072;SDS011;54862;51.502;7.446;2022-08-19T00:57:59;15.23;;;10.02;;
68072;SDS011;54862;51.502;7.446;2022-08-19T01:00:27;19.40;;;10.20;;
68072;SDS011;54862;51.502;7.446;2022-08-19T01:02:53;14.88;;;9.75;;
68072;SDS011;54862;51.502;7.446;2022-08-19T01:05:20;15.65;;;10.15;;
68072;SDS011;54862;51.502;7.446;2022-08-19T01:07:47;14.32;;;9.35;;
68072;SDS011;54862;51.502;7.446;2022-08-19T01:10:15;16.60;;;10.35;;
68072;SDS011;54862;51.502;7.446;2022-08-19T01:12:43;13.75;;;9.20;;
68072;SDS011;54862;51.502;7.446;2022-08-19T01:15:11;15.43;;;9.65;;
68072;SDS011;54862;51.502;7.446;2022-08-19T01:17:38;15.18;;;9.23;;
68072;SDS011;54862;51.502;7.446;2022-08-19T01:20:05;15.90;;;10.25;;
68072;SDS011;54862;51.502;7.446;2022-08-19T01:22:37;15.35;;;9.63;;
68072;SDS011;54862;51.502;7.446;2022-08-19T01:25:06;15.20;;;9.77;;
68072;SDS011;54862;51.502;7.446;2022-08-19T01:27:36;16.23;;;9.80;;
68072;SDS011;54862;51.502;7.446;2022-08-19T01:30:03;16.35;;;10.05;;
68072;SDS011;54862;51.502;7.446;2022-08-19T01:32:30;14.18;;;9.45;;
68072;SDS011;54862;51.502;7.446;2022-08-19T01:34:56;19.63;;;10.07;;
68072;SDS011;54862;51.502;7.446;2022-08-19T01:37:23;14.80;;;9.77;;
68072;SDS011;54862;51.502;7.446;2022-08-19T01:39:49;14.75;;;9.38;;
68072;SDS011;54862;51.502;7.446;2022-08-19T01:42:15;15.05;;;9.20;;
68072;SDS011;54862;51.502;7.446;2022-08-19T01:44:41;15.50;;;9.95;;
68072;SDS011;54862;51.502;7.446;2022-08-19T01:47:08;16.08;;;10.13;;
68072;SDS011;54862;51.502;7.446;2022-08-19T01:49:35;14.85;;;9.82;;
68072;SDS011;54862;51.502;7.446;2022-08-19T01:52:01;16.27;;;10.38;;
68072;SDS011;54862;51.502;7.446;2022-08-19T01:54:28;16.67;;;10.07;;
68072;SDS011;54862;51.502;7.446;2022-08-19T01:57:05;16.05;;;9.68;;
68072;SDS011;54862;51.502;7.446;2022-08-19T01:59:32;14.80;;;9.27;;
68072;SDS011;54862;51.502;7.446;2022-08-19T02:02:01;14.88;;;9.52;;
68072;SDS011;54862;51.502;7.446;2022-08-19T02:04:27;15.75;;;9.60;;
68072;SDS011;54862;51.502;7.446;2022-08-19T02:06:53;14.85;;;9.07;;
68072;SDS011;54862;51.502;7.446;2022-08-19T02:09:19;15.70;;;9.80;;
68072;SDS011;54862;51.502;7.446;2022-08-19T02:11:45;13.88;;;9.65;;
68072;SDS011;54862;51.502;7.446;2022-08-19T02:14:11;16.35;;;9.80;;
68072;SDS011;54862;51.502;7.446;2022-08-19T02:16:38;17.45;;;10.35;;
68072;SDS011;54862;51.502;7.446;2022-08-19T02:19:05;15.50;;;10.10;;
68072;SDS011;54862;51.502;7.446;2022-08-19T02:21:31;15.13;;;9.55;;
68072;SDS011;54862;51.502;7.446;2022-08-19T02:23:57;16.88;;;9.95;;
68072;SDS011;54862;51.502;7.446;2022-08-19T02:26:23;14.18;;;9.70;;
68072;SDS011;54862;51.502;7.446;2022-08-19T02:28:51;14.68;;;9.60;;
68072;SDS011;54862;51.502;7.446;2022-08-19T02:31:19;14.57;;;9.60;;
68072;SDS011;54862;51.502;7.446;2022-08-19T02:33:46;13.65;;;8.90;;
68072;SDS011;54862;51.502;7.446;2022-08-19T02:36:13;15.38;;;9.30;;
68072;SDS011;54862;51.502;7.446;2022-08-19T02:38:39;13.45;;;9.02;;
68072;SDS011;54862;51.502;7.446;2022-08-19T02:41:15;14.95;;;9.93;;
68072;SDS011;54862;51.502;7.446;2022-08-19T02:43:42;13.52;;;9.07;;
68072;SDS011;54862;51.502;7.446;2022-08-19T02:46:27;15.55;;;9.13;;
68072;SDS011;54862;51.502;7.446;2022-08-19T02:48:56;14.25;;;9.30;;
68072;SDS011;54862;51.502;7.446;2022-08-19T02:51:24;14.82;;;9.57;;
68072;SDS011;54862;51.502;7.446;2022-08-19T02:53:50;12.82;;;8.75;;
68072;SDS011;54862;51.502;7.446;2022-08-19T02:56:16;14.00;;;9.25;;
68072;SDS011;54862;51.502;7.446;2022-08-19T02:58:42;13.75;;;9.10;;
68072;SDS011;54862;51.502;7.446;2022-08-19T03:01:09;14.82;;;9.32;;
68072;SDS011;54862;51.502;7.446;2022-08-19T03:03:36;15.88;;;9.60;;
68072;SDS011;54862;51.502;7.446;2022-08-19T03:06:13;13.63;;;8.52;;
68072;SDS011;54862;51.502;7.446;2022-08-19T03:08:44;14.02;;;8.60;;
68072;SDS011;54862;51.502;7.446;2022-08-19T03:11:18;13.63;;;9.23;;
68072;SDS011;54862;51.502;7.446;2022-08-19T03:13:44;13.18;;;8.68;;
68072;SDS011;54862;51.502;7.446;2022-08-19T03:16:11;13.35;;;8.98;;
68072;SDS011;54862;51.502;7.446;2022-08-19T03:18:37;16.20;;;9.50;;
68072;SDS011;54862;51.502;7.446;2022-08-19T03:21:04;14.73;;;9.85;;
68072;SDS011;54862;51.502;7.446;2022-08-19T03:23:30;17.10;;;9.20;;
68072;SDS011;54862;51.502;7.446;2022-08-19T03:25:56;15.85;;;9.43;;
68072;SDS011;54862;51.502;7.446;2022-08-19T03:28:22;15.35;;;9.40;;
68072;SDS011;54862;51.502;7.446;2022-08-19T03:30:56;14.23;;;9.00;;
68072;SDS011;54862;51.502;7.446;2022-08-19T03:33:23;16.35;;;8.93;;
68072;SDS011;54862;51.502;7.446;2022-08-19T03:36:05;14.93;;;9.25;;
68072;SDS011;54862;51.502;7.446;2022-08-19T03:38:33;15.13;;;9.57;;
68072;SDS011;54862;51.502;7.446;2022-08-19T03:41:04;14.18;;;9.07;;
68072;SDS011;54862;51.502;7.446;2022-08-19T03:43:31;17.05;;;10.10;;
68072;SDS011;54862;51.502;7.446;2022-08-19T03:46:01;16.63;;;9.68;;
68072;SDS011;54862;51.502;7.446;2022-08-19T03:48:29;13.50;;;8.35;;
68072;SDS011;54862;51.502;7.446;2022-08-19T03:50:55;14.25;;;9.38;;
68072;SDS011;54862;51.502;7.446;2022-08-19T03:53:23;16.77;;;9.05;;
68072;SDS011;54862;51.502;7.446;2022-08-19T03:55:50;14.93;;;9.77;;
68072;SDS011;54862;51.502;7.446;2022-08-19T03:58:17;15.02;;;9.25;;
68072;SDS011;54862;51.502;7.446;2022-08-19T04:00:43;16.27;;;10.30;;
68072;SDS011;54862;51.502;7.446;2022-08-19T04:03:09;15.43;;;9.90;;
68072;SDS011;54862;51.502;7.446;2022-08-19T04:05:36;15.18;;;9.95;;
68072;SDS011;54862;51.502;7.446;2022-08-19T04:08:03;16.05;;;9.98;;
68072;SDS011;54862;51.502;7.446;2022-08-19T04:10:31;13.88;;;9.27;;
68072;SDS011;54862;51.502;7.446;2022-08-19T04:12:57;16.73;;;9.85;;
68072;SDS011;54862;51.502;7.446;2022-08-19T04:15:23;16.88;;;9.77;;
68072;SDS011;54862;51.502;7.446;2022-08-19T04:17:49;16.73;;;10.40;;
68072;SDS011;54862;51.502;7.446;2022-08-19T04:20:15;16.88;;;10.43;;
68072;SDS011;54862;51.502;7.446;2022-08-19T04:22:41;14.77;;;9.52;;
68072;SDS011;54862;51.502;7.446;2022-08-19T04:25:07;16.70;;;9.90;;
68072;SDS011;54862;51.502;7.446;2022-08-19T04:27:33;17.42;;;10.68;;
68072;SDS011;54862;51.502;7.446;2022-08-19T04:30:00;16.80;;;10.02;;
68072;SDS011;54862;51.502;7.446;2022-08-19T04:32:26;15.55;;;9.88;;
68072;SDS011;54862;51.502;7.446;2022-08-19T04:34:52;15.18;;;10.43;;
68072;SDS011;54862;51.502;7.446;2022-08-19T04:37:24;15.93;;;10.48;;
68072;SDS011;54862;51.502;7.446;2022-08-19T04:39:51;15.15;;;9.52;;
68072;SDS011;54862;51.502;7.446;2022-08-19T04:42:36;16.08;;;10.30;;
68072;SDS011;54862;51.502;7.446;2022-08-19T04:45:06;18.38;;;9.98;;
68072;SDS011;54862;51.502;7.446;2022-08-19T04:47:34;17.75;;;11.00;;
68072;SDS011;54862;51.502;7.446;2022-08-19T04:50:01;18.80;;;10.57;;
68072;SDS011;54862;51.502;7.446;2022-08-19T04:52:28;17.92;;;10.27;;
68072;SDS011;54862;51.502;7.446;2022-08-19T04:54:56;16.60;;;10.77;;
68072;SDS011;54862;51.502;7.446;2022-08-19T04:57:23;16.13;;;10.48;;
68072;SDS011;54862;51.502;7.446;2022-08-19T04:59:49;17.58;;;10.43;;
68072;SDS011;54862;51.502;7.446;2022-08-19T05:02:15;18.90;;;10.95;;
68072;SDS011;54862;51.502;7.446;2022-08-19T05:04:41;16.15;;;10.65;;
68072;SDS011;54862;51.502;7.446;2022-08-19T05:07:07;19.80;;;11.48;;
68072;SDS011;54862;51.502;7.446;2022-08-19T05:09:34;18.45;;;11.27;;
68072;SDS011;54862;51.502;7.446;2022-08-19T05:12:01;19.13;;;10.85;;
68072;SDS011;54862;51.502;7.446;2022-08-19T05:14:27;19.33;;;11.23;;
68072;SDS011;54862;51.502;7.446;2022-08-19T05:16:53;18.10;;;11.20;;
68072;SDS011;54862;51.502;7.446;2022-08-19T05:19:19;19.48;;;11.18;;
68072;SDS011;54862;51.502;7.446;2022-08-19T05:22:04;19.05;;;11.55;;
68072;SDS011;54862;51.502;7.446;2022-08-19T05:24:49;19.80;;;10.90;;
68072;SDS011;54862;51.502;7.446;2022-08-19T05:27:15;17.48;;;11.25;;
68072;SDS011;54862;51.502;7.446;2022-08-19T05:29:41;19.27;;;12.07;;
68072;SDS011;54862;51.502;7.446;2022-08-19T05:32:07;19.90;;;12.13;;
68072;SDS011;54862;51.502;7.446;2022-08-19T05:34:34;17.23;;;10.85;;
68072;SDS011;54862;51.502;7.446;2022-08-19T05:37:03;19.48;;;11.27;;
68072;SDS011;54862;51.502;7.446;2022-08-19T05:39:31;22.15;;;12.38;;
68072;SDS011;54862;51.502;7.446;2022-08-19T05:41:58;19.63;;;12.15;;
68072;SDS011;54862;51.502;7.446;2022-08-19T05:44:25;23.80;;;12.63;;
68072;SDS011;54862;51.502;7.446;2022-08-19T05:46:52;20.67;;;13.00;;
68072;SDS011;54862;51.502;7.446;2022-08-19T05:49:18;22.55;;;12.77;;
68072;SDS011;54862;51.502;7.446;2022-08-19T05:51:44;24.52;;;13.30;;
68072;SDS011;54862;51.502;7.446;2022-08-19T05:54:10;23.50;;;13.60;;
68072;SDS011;54862;51.502;7.446;2022-08-19T05:56:38;22.85;;;13.10;;
68072;SDS011;54862;51.502;7.446;2022-08-19T05:59:05;21.83;;;13.35;;
68072;SDS011;54862;51.502;7.446;2022-08-19T06:01:39;21.08;;;12.52;;
68072;SDS011;54862;51.502;7.446;2022-08-19T06:04:05;21.45;;;13.00;;
68072;SDS011;54862;51.502;7.446;2022-08-19T06:06:32;22.35;;;14.13;;
68072;SDS011;54862;51.502;7.446;2022-08-19T06:08:59;22.90;;;13.77;;
68072;SDS011;54862;51.502;7.446;2022-08-19T06:13:59;22.37;;;12.53;;
68072;SDS011;54862;51.502;7.446;2022-08-19T06:16:26;21.05;;;12.73;;
68072;SDS011;54862;51.502;7.446;2022-08-19T06:18:52;21.05;;;13.25;;
68072;SDS011;54862;51.502;7.446;2022-08-19T06:21:20;20.63;;;13.05;;
68072;SDS011;54862;51.502;7.446;2022-08-19T06:23:47;20.35;;;12.30;;
68072;SDS011;54862;51.502;7.446;2022-08-19T06:26:14;23.70;;;13.63;;
68072;SDS011;54862;51.502;7.446;2022-08-19T06:28:40;20.88;;;12.55;;
68072;SDS011;54862;51.502;7.446;2022-08-19T06:31:11;21.88;;;13.43;;
68072;SDS011;54862;51.502;7.446;2022-08-19T06:33:38;21.92;;;13.23;;
68072;SDS011;54862;51.502;7.446;2022-08-19T06:36:05;20.10;;;12.93;;
68072;SDS011;54862;51.502;7.446;2022-08-19T06:38:31;21.15;;;12.75;;
68072;SDS011;54862;51.502;7.446;2022-08-19T06:41:04;21.25;;;12.63;;
68072;SDS011;54862;51.502;7.446;2022-08-19T06:43:30;21.27;;;12.20;;
68072;SDS011;54862;51.502;7.446;2022-08-19T06:45:56;20.60;;;12.73;;
68072;SDS011;54862;51.502;7.446;2022-08-19T06:48:24;22.65;;;13.52;;
68072;SDS011;54862;51.502;7.446;2022-08-19T06:50:50;19.85;;;12.88;;
68072;SDS011;54862;51.502;7.446;2022-08-19T06:53:16;21.10;;;13.07;;
68072;SDS011;54862;51.502;7.446;2022-08-19T06:55:44;21.70;;;13.10;;
68072;SDS011;54862;51.502;7.446;2022-08-19T06:58:10;21.52;;;13.00;;
68072;SDS011;54862;51.502;7.446;2022-08-19T07:00:36;23.55;;;13.50;;
68072;SDS011;54862;51.502;7.446;2022-08-19T07:03:02;23.40;;;13.25;;
68072;SDS011;54862;51.502;7.446;2022-08-19T07:05:28;23.67;;;12.50;;
68072;SDS011;54862;51.502;7.446;2022-08-19T07:07:54;21.85;;;12.77;;
68072;SDS011;54862;51.502;7.446;2022-08-19T07:10:21;23.17;;;13.07;;
68072;SDS011;54862;51.502;7.446;2022-08-19T07:12:47;21.90;;;13.02;;
68072;SDS011;54862;51.502;7.446;2022-08-19T07:15:15;19.83;;;12.80;;
68072;SDS011;54862;51.502;7.446;2022-08-19T07:17:41;21.38;;;12.77;;
68072;SDS011;54862;51.502;7.446;2022-08-19T07:20:08;20.50;;;11.95;;
68072;SDS011;54862;51.502;7.446;2022-08-19T07:22:35;23.38;;;13.00;;
68072;SDS011;54862;51.502;7.446;2022-08-19T07:25:01;20.95;;;12.68;;
68072;SDS011;54862;51.502;7.446;2022-08-19T07:27:28;20.20;;;12.60;;
68072;SDS011;54862;51.502;7.446;2022-08-19T07:29:54;20.20;;;11.93;;
68072;SDS011;54862;51.502;7.446;2022-08-19T07:32:20;19.52;;;12.57;;
68072;SDS011;54862;51.502;7.446;2022-08-19T07:34:46;20.67;;;11.98;;
68072;SDS011;54862;51.502;7.446;2022-08-19T07:37:12;21.65;;;11.70;;
68072;SDS011;54862;51.502;7.446;2022-08-19T07:39:38;20.92;;;12.65;;
68072;SDS011;54862;51.502;7.446;2022-08-19T07:42:06;21.27;;;11.95;;
68072;SDS011;54862;51.502;7.446;2022-08-19T07:44:33;26.48;;;13.00;;
68072;SDS011;54862;51.502;7.446;2022-08-19T07:46:59;19.98;;;11.40;;
68072;SDS011;54862;51.502;7.446;2022-08-19T07:49:26;22.02;;;11.73;;
68072;SDS011;54862;51.502;7.446;2022-08-19T07:51:53;24.98;;;11.30;;
68072;SDS011;54862;51.502;7.446;2022-08-19T07:54:20;21.25;;;11.27;;
68072;SDS011;54862;51.502;7.446;2022-08-19T07:56:46;18.85;;;11.30;;
68072;SDS011;54862;51.502;7.446;2022-08-19T07:59:15;22.67;;;13.57;;
68072;SDS011;54862;51.502;7.446;2022-08-19T08:01:42;20.33;;;12.10;;
68072;SDS011;54862;51.502;7.446;2022-08-19T08:04:09;21.75;;;11.75;;
68072;SDS011;54862;51.502;7.446;2022-08-19T08:06:53;18.20;;;10.48;;
68072;SDS011;54862;51.502;7.446;2022-08-19T08:09:39;21.00;;;11.85;;
68072;SDS011;54862;51.502;7.446;2022-08-19T08:12:07;22.50;;;12.80;;
68072;SDS011;54862;51.502;7.446;2022-08-19T08:14:38;23.88;;;11.68;;
68072;SDS011;54862;51.502;7.446;2022-08-19T08:17:05;25.92;;;11.40;;
68072;SDS011;54862;51.502;7.446;2022-08-19T08:19:31;20.45;;;10.95;;
68072;SDS011;54862;51.502;7.446;2022-08-19T08:21:58;29.20;;;12.25;;
68072;SDS011;54862;51.502;7.446;2022-08-19T08:24:26;24.05;;;12.50;;
68072;SDS011;54862;51.502;7.446;2022-08-19T08:26:52;19.17;;;11.57;;
68072;SDS011;54862;51.502;7.446;2022-08-19T08:29:18;21.23;;;11.88;;
68072;SDS011;54862;51.502;7.446;2022-08-19T08:31:44;23.15;;;11.65;;
68072;SDS011;54862;51.502;7.446;2022-08-19T08:34:11;20.25;;;12.23;;
68072;SDS011;54862;51.502;7.446;2022-08-19T08:36:37;20.92;;;12.63;;
68072;SDS011;54862;51.502;7.446;2022-08-19T08:39:07;16.95;;;10.98;;
68072;SDS011;54862;51.502;7.446;2022-08-19T08:44:20;16.30;;;9.93;;
68072;SDS011;54862;51.502;7.446;2022-08-19T08:46:54;16.45;;;9.93;;
68072;SDS011;54862;51.502;7.446;2022-08-19T08:49:37;16.58;;;9.18;;
68072;SDS011;54862;51.502;7.446;2022-08-19T08:52:09;17.00;;;10.82;;
68072;SDS011;54862;51.502;7.446;2022-08-19T08:54:41;15.07;;;9.95;;
68072;SDS011;54862;51.502;7.446;2022-08-19T08:57:10;15.82;;;9.80;;
68072;SDS011;54862;51.502;7.446;2022-08-19T08:59:39;18.75;;;9.88;;
68072;SDS011;54862;51.502;7.446;2022-08-19T09:02:06;18.88;;;10.93;;
68072;SDS011;54862;51.502;7.446;2022-08-19T09:04:34;18.35;;;10.70;;
68072;SDS011;54862;51.502;7.446;2022-08-19T09:09:55;16.60;;;10.27;;
68072;SDS011;54862;51.502;7.446;2022-08-19T09:12:40;17.73;;;10.57;;
68072;SDS011;54862;51.502;7.446;2022-08-19T09:15:11;16.00;;;10.63;;
68072;SDS011;54862;51.502;7.446;2022-08-19T09:17:38;18.58;;;12.75;;
68072;SDS011;54862;51.502;7.446;2022-08-19T09:22:33;21.35;;;12.77;;
68072;SDS011;54862;51.502;7.446;2022-08-19T09:25:00;20.60;;;13.10;;
68072;SDS011;54862;51.502;7.446;2022-08-19T09:27:26;18.83;;;13.13;;
68072;SDS011;54862;51.502;7.446;2022-08-19T09:29:53;17.67;;;11.20;;
68072;SDS011;54862;51.502;7.446;2022-08-19T09:32:20;17.77;;;11.27;;
68072;SDS011;54862;51.502;7.446;2022-08-19T09:34:46;16.10;;;11.75;;
68072;SDS011;54862;51.502;7.446;2022-08-19T09:37:12;19.23;;;11.80;;
68072;SDS011;54862;51.502;7.446;2022-08-19T09:39:38;18.85;;;11.73;;
68072;SDS011;54862;51.502;7.446;2022-08-19T09:42:06;17.13;;;11.25;;
68072;SDS011;54862;51.502;7.446;2022-08-19T09:44:36;17.50;;;12.57;;
68072;SDS011;54862;51.502;7.446;2022-08-19T09:47:02;17.83;;;11.52;;
68072;SDS011;54862;51.502;7.446;2022-08-19T09:49:29;17.40;;;11.35;;
68072;SDS011;54862;51.502;7.446;2022-08-19T09:51:56;15.88;;;11.32;;
68072;SDS011;54862;51.502;7.446;2022-08-19T09:54:22;19.17;;;13.68;;
68072;SDS011;54862;51.502;7.446;2022-08-19T09:56:48;20.05;;;13.77;;
68072;SDS011;54862;51.502;7.446;2022-08-19T09:59:15;18.17;;;12.55;;
68072;SDS011;54862;51.502;7.446;2022-08-19T10:01:41;17.58;;;12.35;;
68072;SDS011;54862;51.502;7.446;2022-08-19T10:04:07;22.85;;;15.70;;
68072;SDS011;54862;51.502;7.446;2022-08-19T10:06:33;20.15;;;15.15;;
68072;SDS011;54862;51.502;7.446;2022-08-19T10:09:00;21.65;;;14.27;;
68072;SDS011;54862;51.502;7.446;2022-08-19T10:11:29;20.55;;;14.52;;
68072;SDS011;54862;51.502;7.446;2022-08-19T10:13:55;27.50;;;16.45;;
68072;SDS011;54862;51.502;7.446;2022-08-19T10:16:22;21.75;;;14.13;;
68072;SDS011;54862;51.502;7.446;2022-08-19T10:18:48;19.92;;;13.20;;
68072;SDS011;54862;51.502;7.446;2022-08-19T10:21:19;18.65;;;11.82;;
68072;SDS011;54862;51.502;7.446;2022-08-19T10:23:46;19.65;;;12.43;;
68072;SDS011;54862;51.502;7.446;2022-08-19T10:26:14;19.30;;;11.68;;
68072;SDS011;54862;51.502;7.446;2022-08-19T10:28:40;18.67;;;12.18;;
68072;SDS011;54862;51.502;7.446;2022-08-19T10:31:07;14.82;;;10.40;;
68072;SDS011;54862;51.502;7.446;2022-08-19T10:33:35;13.38;;;8.20;;
68072;SDS011;54862;51.502;7.446;2022-08-19T10:36:05;12.10;;;7.53;;
68072;SDS011;54862;51.502;7.446;2022-08-19T10:38:32;11.75;;;7.75;;
68072;SDS011;54862;51.502;7.446;2022-08-19T10:41:05;14.70;;;8.18;;
68072;SDS011;54862;51.502;7.446;2022-08-19T10:43:32;16.70;;;10.52;;
68072;SDS011;54862;51.502;7.446;2022-08-19T10:46:02;14.60;;;10.55;;
68072;SDS011;54862;51.502;7.446;2022-08-19T10:48:28;14.15;;;9.45;;
68072;SDS011;54862;51.502;7.446;2022-08-19T10:50:54;15.82;;;11.82;;
68072;SDS011;54862;51.502;7.446;2022-08-19T10:53:41;15.70;;;11.57;;
68072;SDS011;54862;51.502;7.446;2022-08-19T10:56:07;14.27;;;10.45;;
68072;SDS011;54862;51.502;7.446;2022-08-19T10:58:51;15.38;;;10.88;;
68072;SDS011;54862;51.502;7.446;2022-08-19T11:01:17;15.68;;;10.15;;
68072;SDS011;54862;51.502;7.446;2022-08-19T11:03:43;14.00;;;10.15;;
68072;SDS011;54862;51.502;7.446;2022-08-19T11:06:10;15.43;;;9.65;;
68072;SDS011;54862;51.502;7.446;2022-08-19T11:08:36;13.52;;;9.15;;
68072;SDS011;54862;51.502;7.446;2022-08-19T11:11:03;13.77;;;8.77;;
68072;SDS011;54862;51.502;7.446;2022-08-19T11:13:30;10.20;;;7.20;;
68072;SDS011;54862;51.502;7.446;2022-08-19T11:15:59;13.98;;;7.82;;
68072;SDS011;54862;51.502;7.446;2022-08-19T11:18:25;12.63;;;7.85;;
68072;SDS011;54862;51.502;7.446;2022-08-19T11:20:51;12.02;;;8.25;;
68072;SDS011;54862;51.502;7.446;2022-08-19T11:23:17;14.13;;;9.00;;
68072;SDS011;54862;51.502;7.446;2022-08-19T11:25:44;16.05;;;9.00;;
68072;SDS011;54862;51.502;7.446;2022-08-19T11:28:10;13.90;;;9.00;;
68072;SDS011;54862;51.502;7.446;2022-08-19T11:30:37;16.83;;;10.52;;
68072;SDS011;54862;51.502;7.446;2022-08-19T11:33:03;16.73;;;9.48;;
68072;SDS011;54862;51.502;7.446;2022-08-19T11:35:29;14.00;;;9.20;;
68072;SDS011;54862;51.502;7.446;2022-08-19T11:37:56;14.85;;;9.13;;
68072;SDS011;54862;51.502;7.446;2022-08-19T11:40:26;16.27;;;9.18;;
68072;SDS011;54862;51.502;7.446;2022-08-19T11:42:52;13.07;;;8.48;;
68072;SDS011;54862;51.502;7.446;2022-08-19T11:45:22;12.82;;;8.18;;
68072;SDS011;54862;51.502;7.446;2022-08-19T11:47:48;12.50;;;7.85;;
68072;SDS011;54862;51.502;7.446;2022-08-19T11:50:14;11.77;;;7.55;;
68072;SDS011;54862;51.502;7.446;2022-08-19T11:52:41;11.25;;;6.90;;
68072;SDS011;54862;51.502;7.446;2022-08-19T11:55:08;13.38;;;8.55;;
68072;SDS011;54862;51.502;7.446;2022-08-19T11:57:34;14.05;;;8.85;;
68072;SDS011;54862;51.502;7.446;2022-08-19T12:00:00;14.65;;;9.60;;
68072;SDS011;54862;51.502;7.446;2022-08-19T12:02:27;17.35;;;12.32;;
68072;SDS011;54862;51.502;7.446;2022-08-19T12:04:53;17.00;;;12.50;;
68072;SDS011;54862;51.502;7.446;2022-08-19T12:07:19;21.42;;;14.82;;
68072;SDS011;54862;51.502;7.446;2022-08-19T12:09:45;20.27;;;14.60;;
68072;SDS011;54862;51.502;7.446;2022-08-19T12:12:12;22.45;;;15.93;;
68072;SDS011;54862;51.502;7.446;2022-08-19T12:14:38;20.85;;;16.00;;
68072;SDS011;54862;51.502;7.446;2022-08-19T12:17:04;18.63;;;15.13;;
68072;SDS011;54862;51.502;7.446;2022-08-19T12:19:32;19.20;;;14.95;;
68072;SDS011;54862;51.502;7.446;2022-08-19T12:21:59;20.52;;;15.82;;
68072;SDS011;54862;51.502;7.446;2022-08-19T12:24:32;22.20;;;14.93;;
68072;SDS011;54862;51.502;7.446;2022-08-19T12:26:59;20.75;;;15.07;;
68072;SDS011;54862;51.502;7.446;2022-08-19T12:29:26;22.48;;;15.35;;
68072;SDS011;54862;51.502;7.446;2022-08-19T12:31:54;18.67;;;14.25;;
68072;SDS011;54862;51.502;7.446;2022-08-19T12:34:26;20.25;;;14.23;;
68072;SDS011;54862;51.502;7.446;2022-08-19T12:36:55;17.83;;;12.60;;
68072;SDS011;54862;51.502;7.446;2022-08-19T12:39:21;16.92;;;11.73;;
68072;SDS011;54862;51.502;7.446;2022-08-19T12:41:47;20.42;;;12.68;;
68072;SDS011;54862;51.502;7.446;2022-08-19T12:44:13;19.05;;;12.80;;
68072;SDS011;54862;51.502;7.446;2022-08-19T12:46:39;16.70;;;12.00;;
68072;SDS011;54862;51.502;7.446;2022-08-19T12:49:06;15.18;;;10.45;;
68072;SDS011;54862;51.502;7.446;2022-08-19T12:51:32;14.00;;;9.98;;
68072;SDS011;54862;51.502;7.446;2022-08-19T12:53:58;14.25;;;9.48;;
68072;SDS011;54862;51.502;7.446;2022-08-19T12:56:24;16.00;;;12.15;;
68072;SDS011;54862;51.502;7.446;2022-08-19T12:58:50;18.63;;;12.07;;
68072;SDS011;54862;51.502;7.446;2022-08-19T13:01:17;17.80;;;12.48;;
68072;SDS011;54862;51.502;7.446;2022-08-19T13:03:44;17.02;;;12.20;;
68072;SDS011;54862;51.502;7.446;2022-08-19T13:06:10;19.02;;;12.77;;
68072;SDS011;54862;51.502;7.446;2022-08-19T13:08:37;18.13;;;12.63;;
68072;SDS011;54862;51.502;7.446;2022-08-19T13:11:07;16.77;;;12.23;;
68072;SDS011;54862;51.502;7.446;2022-08-19T13:13:33;18.55;;;12.90;;
68072;SDS011;54862;51.502;7.446;2022-08-19T13:16:00;15.50;;;11.20;;
68072;SDS011;54862;51.502;7.446;2022-08-19T13:18:29;16.30;;;11.88;;
68072;SDS011;54862;51.502;7.446;2022-08-19T13:20:56;15.30;;;11.35;;
68072;SDS011;54862;51.502;7.446;2022-08-19T13:23:22;15.98;;;10.25;;
68072;SDS011;54862;51.502;7.446;2022-08-19T13:25:58;12.57;;;9.57;;
68072;SDS011;54862;51.502;7.446;2022-08-19T13:28:24;13.48;;;8.93;;
68072;SDS011;54862;51.502;7.446;2022-08-19T13:30:51;15.45;;;8.68;;
68072;SDS011;54862;51.502;7.446;2022-08-19T13:33:35;14.63;;;8.05;;
68072;SDS011;54862;51.502;7.446;2022-08-19T13:36:01;11.63;;;7.82;;
68072;SDS011;54862;51.502;7.446;2022-08-19T13:38:31;11.27;;;7.47;;
68072;SDS011;54862;51.502;7.446;2022-08-19T13:40:57;10.85;;;6.78;;
68072;SDS011;54862;51.502;7.446;2022-08-19T13:43:29;10.63;;;7.25;;
68072;SDS011;54862;51.502;7.446;2022-08-19T13:45:55;11.07;;;7.43;;
68072;SDS011;54862;51.502;7.446;2022-08-19T13:48:21;12.07;;;7.55;;
68072;SDS011;54862;51.502;7.446;2022-08-19T13:50:48;10.20;;;7.28;;
68072;SDS011;54862;51.502;7.446;2022-08-19T13:53:14;9.82;;;6.80;;
68072;SDS011;54862;51.502;7.446;2022-08-19T13:55:42;11.57;;;7.85;;
68072;SDS011;54862;51.502;7.446;2022-08-19T13:58:09;12.50;;;7.20;;
68072;SDS011;54862;51.502;7.446;2022-08-19T14:00:36;10.55;;;6.68;;
68072;SDS011;54862;51.502;7.446;2022-08-19T14:03:03;11.02;;;6.20;;
68072;SDS011;54862;51.502;7.446;2022-08-19T14:05:30;10.02;;;6.72;;
68072;SDS011;54862;51.502;7.446;2022-08-19T14:07:56;10.15;;;5.75;;
68072;SDS011;54862;51.502;7.446;2022-08-19T14:10:23;11.82;;;6.78;;
68072;SDS011;54862;51.502;7.446;2022-08-19T14:12:52;11.93;;;6.55;;
68072;SDS011;54862;51.502;7.446;2022-08-19T14:15:18;11.57;;;6.82;;
68072;SDS011;54862;51.502;7.446;2022-08-19T14:17:44;11.20;;;7.00;;
68072;SDS011;54862;51.502;7.446;2022-08-19T14:20:13;26.20;;;8.18;;
68072;SDS011;54862;51.502;7.446;2022-08-19T14:22:41;10.68;;;7.20;;
68072;SDS011;54862;51.502;7.446;2022-08-19T14:25:09;11.63;;;7.18;;
68072;SDS011;54862;51.502;7.446;2022-08-19T14:27:36;14.43;;;7.35;;
68072;SDS011;54862;51.502;7.446;2022-08-19T14:30:03;9.88;;;6.80;;
68072;SDS011;54862;51.502;7.446;2022-08-19T14:32:29;14.35;;;7.88;;
68072;SDS011;54862;51.502;7.446;2022-08-19T14:34:55;11.50;;;7.45;;
68072;SDS011;54862;51.502;7.446;2022-08-19T14:37:21;12.30;;;7.30;;
68072;SDS011;54862;51.502;7.446;2022-08-19T14:39:47;11.05;;;6.65;;